Terminal Aerodrome Forecast
Issued by NWS

Home | Current Version | Previous Version | Text Only | Print | Product List | Glossary On
Versions: 1 2 3 4 5 6 7 8 9 10 11 12 13
000
FTUS42 TJSJ 021124
TAFIST
TAF
TIST 021124Z 0212/0312 VRB05KT P6SM VCSH FEW025
     FM021300 14012KT P6SM VCSH FEW025 SCT050
     FM022300 08008KT P6SM FEW040=

USA.gov is the U.S. government's official web portal to all federal, state and local government web resources and services.